Latest Weather Observations for Giles*

IDW60801

Issued at 11:32 am WST Friday 12 February 2016 (issued every 30 minutes, with the page automatically refreshed every 10 minutes)

About weather observations | Map of weather stations | Latest weather observations for WA | Other Formats
Station Details ID: 013017 Name: GILES METEOROLOGICAL OFFICE Lat: -25.03 Lon: 128.30 Height: 598.0 m
Data from the previous 72 hours. | See also: Recent months at Giles*

* Giles observations are collected in the South Australia time zone, which includes daylight saving in the summer period. Therefore, Rain since 9am value is with respect to South Australia local time.

Date/Time
WST
Temp
°C
App
Temp
°C
Dew
Point
Rel
Hum
%
Delta-T
°C
Wind Press
QNH
hPa
Press
MSL
hPa
Rain
since 9 am
mm
Dir
 
Spd
km/h
Gust
km/h
Spd
kts
Gust
kts
12/11:30am 38.4 32.3 -3.7 7 20.6 N 19 28 10 15 1014.1 1009.4 0.0
12/11:00am 37.7 30.8 -5.8 6 20.5 NNE 22 33 12 18 1014.6 1009.9 0.0
12/10:30am 37.1 30.2 -2.7 8 19.6 NNE 24 33 13 18 1015.1 1010.4 0.0
12/10:00am 36.8 30.3 -2.6 8 19.4 NE 22 46 12 25 1015.4 1010.7 0.0
12/09:30am 35.8 27.8 -6.2 6 19.4 NE 28 37 15 20 1015.8 1011.1 0.0
12/09:00am 35.7 29.3 -5.4 7 19.2 ENE 20 33 11 18 1016.0 1011.3 0.0
12/08:30am 34.2 26.4 -8.0 6 18.7 ENE 26 39 14 21 1016.0 1011.3 0.0
12/08:00am 33.0 25.0 -9.5 6 18.2 E 26 41 14 22 1016.0 1011.3 0.0
12/07:30am 31.1 23.2 -8.8 7 17.0 E 26 37 14 20 1016.3 1011.6 0.0
12/07:00am 29.1 23.9 -6.4 9 15.5 E 13 20 7 11 1016.4 1011.7 0.0
12/06:30am 25.5 19.0 -6.4 11 13.5 ESE 20 26 11 14 1016.2 1011.5 0.0
12/06:00am 23.7 17.0 -8.0 11 12.8 ESE 20 26 11 14 1016.1 1011.4 0.0
12/05:30am 22.5 15.7 -8.8 11 12.3 ESE 20 24 11 13 1016.0 1011.3 0.0
12/05:00am 21.8 15.3 -7.9 13 11.8 ESE 19 22 10 12 1015.8 1011.1 0.0
12/04:30am 22.8 16.2 -9.1 11 12.5 ESE 19 22 10 12 1015.4 1010.7 0.0
12/04:00am 23.4 16.6 -9.6 10 12.9 ESE 20 24 11 13 1015.1 1010.4 0.0
12/03:30am 20.9 15.4 -5.5 16 10.9 SE 15 17 8 9 1015.2 1010.5 0.0
12/03:00am 21.9 16.3 -6.5 14 11.6 ESE 15 17 8 9 1014.9 1010.2 0.0
12/02:30am 23.1 17.4 -7.5 12 12.4 ESE 15 17 8 9 1014.9 1010.2 0.0
12/02:00am 23.6 17.9 -7.7 12 12.7 ESE 15 17 8 9 1014.7 1010.0 0.0
12/01:30am 25.4 18.7 -9.9 9 14.0 ESE 19 24 10 13 1014.7 1010.0 0.0
12/01:00am 25.1 19.8 -7.6 11 13.5 E 13 17 7 9 1014.8 1010.1 0.0
12/12:30am 26.1 20.7 -8.0 10 14.1 ESE 13 17 7 9 1014.8 1010.1 0.0
12/12:00am 27.4 21.5 -9.3 8 15.0 SE 15 20 8 11 1015.1 1010.4 0.0
 
Date/Time
WST
Temp
°C
App
Temp
°C
Dew
Point
Rel
Hum
%
Delta-T
°C
Wind Press
QNH
hPa
Press
MSL
hPa
Rain
since 9 am
mm
Dir
 
Spd
km/h
Gust
km/h
Spd
kts
Gust
kts
11/11:30pm 28.0 21.7 -9.8 8 15.4 SE 17 26 9 14 1015.2 1010.5 0.0
11/11:00pm 28.3 22.2 -7.9 9 15.3 SSE 17 20 9 11 1015.4 1010.7 0.0
11/10:30pm 29.5 22.9 -9.5 7 16.2 SSE 19 24 10 13 1015.6 1010.9 0.0
11/10:00pm 30.5 23.5 -11.4 6 17.0 SSE 20 32 11 17 1015.4 1010.7 0.0
11/09:30pm 31.0 23.7 -10.7 6 17.2 SSE 22 30 12 16 1015.2 1010.5 0.0
11/09:00pm 31.3 24.5 -9.3 6 17.2 SSE 20 28 11 15 1015.0 1010.3 0.0
11/08:30pm 32.2 25.0 -10.0 6 17.8 SSE 22 32 12 17 1014.8 1010.1 0.0
11/08:00pm 32.3 25.9 -6.7 7 17.4 S 19 22 10 12 1014.5 1009.8 0.0
11/07:30pm 33.4 27.0 -5.1 8 17.8 S 20 28 11 15 1014.1 1009.4 0.0
11/07:00pm 34.0 27.8 -4.8 8 18.1 S 19 28 10 15 1013.9 1009.1 0.0
11/06:30pm 34.6 29.1 -5.0 7 18.5 S 15 20 8 11 1013.5 1008.8 0.0
11/06:00pm 36.2 29.2 -7.2 6 19.8 S 22 35 12 19 1013.0 1008.3 0.0
11/05:30pm 37.5 31.1 -7.2 5 20.6 SSE 19 26 10 14 1012.7 1008.0 0.0
11/05:00pm 38.1 31.6 -8.2 5 21.1 S 19 28 10 15 1012.4 1007.6 0.0
11/04:30pm 39.0 33.8 -6.3 5 21.4 SSE 13 24 7 13 1012.2 1007.4 0.0
11/04:00pm 39.2 33.6 -6.8 5 21.6 SE 15 28 8 15 1012.1 1007.3 0.0
11/03:30pm 39.2 32.6 -9.1 4 21.9 SE 19 28 10 15 1012.2 1007.4 0.0
11/03:00pm 39.2 32.2 -11.9 3 22.2 SE 20 32 11 17 1012.2 1007.4 0.0
11/02:30pm 39.3 34.6 -9.5 4 22.0 SSW 9 22 5 12 1012.3 1007.5 0.0
11/02:00pm 39.4 32.1 -10.7 4 22.2 SSE 22 37 12 20 1012.5 1007.8 0.0
11/01:30pm 39.2 32.3 -10.1 4 22.0 S 20 30 11 16 1012.9 1008.2 0.0
11/01:00pm 39.0 34.5 -7.1 5 21.5 ESE 9 19 5 10 1013.2 1008.5 0.0
11/12:30pm 39.2 33.9 -7.7 5 21.7 S 13 28 7 15 1013.6 1008.9 0.0
11/12:00pm 37.9 33.5 -6.3 6 20.7 SW 9 24 5 13 1014.2 1009.5 0.0
11/11:30am 38.1 33.4 -5.5 6 20.7 SSE 11 28 6 15 1014.7 1010.0 0.0
11/11:00am 36.6 31.5 -5.0 7 19.7 SSE 13 20 7 11 1015.0 1010.3 0.0
11/10:30am 37.0 31.5 -5.4 6 20.0 E 15 26 8 14 1015.2 1010.5 0.0
11/10:00am 36.3 29.8 -6.2 6 19.7 ENE 20 30 11 16 1015.6 1010.9 0.0
11/09:30am 35.7 27.4 -8.8 5 19.7 E 28 35 15 19 1015.8 1011.1 0.0
11/09:00am 34.7 26.9 -8.0 6 19.0 E 26 37 14 20 1015.9 1011.2 0.0
11/08:30am 34.1 26.4 -7.0 7 18.5 E 26 37 14 20 1016.1 1011.4 0.0
11/08:00am 32.8 24.9 -4.4 9 17.3 E 28 37 15 20 1016.3 1011.6 0.0
11/07:30am 30.7 23.4 -2.5 11 15.7 E 26 35 14 19 1016.4 1011.7 0.0
11/07:00am 29.4 22.6 -1.8 13 14.8 E 24 33 13 18 1016.4 1011.7 0.0
11/06:30am 28.1 22.2 -0.7 15 13.8 E 20 32 11 17 1016.5 1011.8 0.0
11/06:00am 26.4 21.3 0.6 18 12.5 E 17 22 9 12 1016.3 1011.6 -
11/05:30am 24.9 19.9 1.1 21 11.5 E 17 20 9 11 1016.2 1011.5 -
11/05:00am 24.4 19.4 1.2 22 11.2 E 17 20 9 11 1016.1 1011.4 -
11/04:30am 24.8 19.7 0.9 21 11.5 E 17 22 9 12 1015.8 1011.1 -
11/04:00am 24.9 20.2 1.1 21 11.5 E 15 19 8 10 1015.6 1010.9 -
11/03:30am 25.4 21.1 0.7 20 11.9 E 13 17 7 9 1015.3 1010.6 -
11/03:00am 26.0 21.2 0.5 19 12.3 E 15 20 8 11 1014.9 1010.2 -
11/02:30am 26.2 22.1 2.0 20 12.0 E 13 20 7 11 1014.7 1010.0 -
11/02:00am 27.5 22.2 -0.5 16 13.4 SE 17 24 9 13 1014.5 1009.8 -
11/01:30am 27.4 22.6 0.1 17 13.2 SE 15 22 8 12 1014.4 1009.7 -
11/01:00am 28.0 22.3 -0.5 15 13.7 SE 19 26 10 14 1014.3 1009.6 -
11/12:30am 27.8 22.6 0.2 16 13.4 SE 17 22 9 12 1014.4 1009.7 0.0
11/12:00am 26.6 22.7 1.0 19 12.5 E 11 15 6 8 1014.5 1009.8 -
 
Date/Time
WST
Temp
°C
App
Temp
°C
Dew
Point
Rel
Hum
%
Delta-T
°C
Wind Press
QNH
hPa
Press
MSL
hPa
Rain
since 9 am
mm
Dir
 
Spd
km/h
Gust
km/h
Spd
kts
Gust
kts
10/11:30pm 26.2 22.8 1.7 20 12.1 SE 9 11 5 6 1014.6 1009.9 -
10/11:00pm 28.0 23.5 -0.1 16 13.6 SE 13 17 7 9 1014.8 1010.1 -
10/10:30pm 27.9 24.5 1.6 18 13.1 E 9 11 5 6 1014.8 1010.1 -
10/10:00pm 29.2 25.1 -0.1 15 14.3 ESE 11 13 6 7 1014.9 1010.2 -
10/09:30pm 30.6 25.1 -2.3 12 15.6 SSE 17 20 9 11 1014.8 1010.1 -
10/09:00pm 30.7 25.6 -2.0 12 15.6 SSE 15 19 8 10 1014.7 1010.0 -
10/08:30pm 32.2 26.6 -3.0 10 16.7 SSE 17 20 9 11 1014.5 1009.8 -
10/08:00pm 33.3 27.2 -4.3 9 17.6 S 19 24 10 13 1014.1 1009.4 -
10/07:30pm 34.0 27.9 -4.2 8 18.0 S 19 24 10 13 1013.8 1009.0 -
10/07:00pm 34.1 28.4 -3.9 8 18.0 S 17 20 9 11 1013.5 1008.8 -
10/06:30pm 35.1 29.3 -5.0 7 18.8 SSE 17 24 9 13 1013.1 1008.4 0.0
10/06:00pm 36.7 29.3 -7.1 6 20.1 S 24 33 13 18 1012.7 1008.0 -
10/05:30pm 37.8 31.2 -7.3 5 20.8 S 20 28 11 15 1012.4 1007.6 -
10/05:00pm 38.1 31.5 -6.7 5 20.9 SE 20 33 11 18 1012.2 1007.4 -
10/04:30pm 38.9 31.5 -7.5 5 21.5 SSE 24 44 13 24 1012.1 1007.3 -
10/04:00pm 39.0 32.4 -7.0 5 21.5 S 20 32 11 17 1011.8 1007.1 -
10/03:30pm 38.7 32.9 -4.9 6 21.0 E 17 24 9 13 1012.0 1007.2 -
10/03:00pm 39.0 34.1 -3.2 7 20.9 E 13 20 7 11 1012.3 1007.5 -
10/02:30pm 38.7 33.7 -4.3 6 20.9 SSE 13 22 7 12 1012.5 1007.8 -
10/02:00pm 39.4 32.9 -6.0 5 21.6 SE 20 37 11 20 1012.9 1008.2 -
10/01:30pm 38.2 33.1 -5.0 6 20.7 SE 13 24 7 13 1013.2 1008.5 -
10/01:00pm 39.0 33.6 -4.5 6 21.1 ENE 15 30 8 16 1013.6 1008.9 -
10/12:30pm 37.0 31.7 -3.5 7 19.7 E 15 32 8 17 1014.1 1009.4 0.0
10/12:00pm 37.7 32.0 -3.9 7 20.2 S 17 32 9 17 1014.4 1009.7 -
10/11:30am 37.7 32.1 -2.8 7 20.0 ESE 17 30 9 16 1015.0 1010.3 -
10/11:00am 36.1 30.5 -2.8 8 19.0 ESE 17 26 9 14 1015.4 1010.7 0.0
10/10:30am 36.8 30.6 -4.9 7 19.8 ESE 19 35 10 19 1015.7 1011.0 0.0
10/10:00am 35.6 30.5 -1.8 9 18.5 E 15 22 8 12 1016.1 1011.4 0.0
10/09:30am 35.7 30.0 -0.6 10 18.3 ESE 19 24 10 13 1016.5 1011.8 0.0
10/09:00am 34.7 29.0 0.3 11 17.5 ESE 20 28 11 15 1016.9 1012.2 0.0
10/08:30am 33.2 26.2 -0.7 11 16.8 ESE 26 35 14 19 1017.3 1012.6 0.0
10/08:00am 32.1 26.0 0.3 13 15.9 ESE 22 32 12 17 1017.3 1012.6 0.0
10/07:30am 29.9 24.6 1.9 16 14.2 SE 19 24 10 13 1017.3 1012.6 0.0
10/07:00am 28.8 23.9 2.0 18 13.5 ESE 17 24 9 13 1017.3 1012.6 0.0
10/06:30am 27.6 22.5 0.9 17 13.1 E 17 22 9 12 1016.9 1012.2 0.0
10/06:00am 25.8 21.2 1.5 20 11.9 E 15 20 8 11 1016.7 1012.0 0.0
10/05:30am 25.2 19.7 0.6 20 11.8 E 19 28 10 15 1016.4 1011.7 0.0
10/05:00am 23.9 19.3 1.3 22 10.9 E 15 20 8 11 1016.3 1011.6 0.0
10/04:30am 23.1 18.5 1.8 24 10.3 ESE 15 17 8 9 1015.9 1011.2 0.0
10/04:00am 24.7 19.6 0.7 20 11.5 ESE 17 20 9 11 1015.6 1010.9 0.0
10/03:30am 24.4 20.2 1.6 22 11.1 E 13 17 7 9 1015.6 1010.9 0.0
10/03:00am 25.3 20.2 0.5 19 11.9 SE 17 20 9 11 1015.0 1010.3 0.0
10/02:30am 25.1 20.4 0.8 20 11.7 SE 15 20 8 11 1014.7 1010.0 0.0
10/02:00am 25.1 21.3 1.6 21 11.5 E 11 15 6 8 1014.6 1009.9 0.0
10/01:30am 26.0 21.6 0.5 19 12.3 E 13 17 7 9 1014.5 1009.8 0.0
10/01:00am 26.6 22.3 1.0 19 12.5 E 13 17 7 9 1014.7 1010.0 0.0
10/12:30am 26.2 22.3 1.3 19 12.2 ENE 11 13 6 7 1014.9 1010.2 0.0
10/12:00am 25.7 21.8 1.3 20 11.9 E 11 13 6 7 1015.1 1010.4 0.0
 
Date/Time
WST
Temp
°C
App
Temp
°C
Dew
Point
Rel
Hum
%
Delta-T
°C
Wind Press
QNH
hPa
Press
MSL
hPa
Rain
since 9 am
mm
Dir
 
Spd
km/h
Gust
km/h
Spd
kts
Gust
kts
09/11:30pm 26.1 21.8 1.1 19 12.2 ESE 13 15 7 8 1015.2 1010.5 0.0
09/11:00pm 26.4 22.5 1.0 19 12.4 ESE 11 13 6 7 1015.4 1010.7 0.0
09/10:30pm 27.0 23.1 1.1 18 12.7 E 11 13 6 7 1015.8 1011.1 0.0
09/10:00pm 27.0 23.5 1.5 19 12.6 E 9 11 5 6 1015.9 1011.2 0.0
09/09:30pm 28.2 24.6 0.3 16 13.6 ESE 9 13 5 7 1016.0 1011.3 0.0
09/09:00pm 29.3 24.8 -0.3 14 14.4 SE 13 17 7 9 1015.8 1011.1 0.0
09/08:30pm 29.5 25.1 0.6 15 14.3 SE 13 17 7 9 1015.6 1010.9 0.0
09/08:00pm 30.1 25.5 -1.3 13 15.1 ESE 13 15 7 8 1015.3 1010.6 0.0
09/07:30pm 31.4 26.2 -2.4 11 16.1 ESE 15 17 8 9 1015.1 1010.4 0.0
09/07:00pm 32.5 27.2 -3.7 9 17.0 ESE 15 17 8 9 1014.8 1010.1 0.0
09/06:30pm 34.2 27.9 -5.9 7 18.4 SE 19 28 10 15 1014.5 1009.8 0.0
09/06:00pm 35.5 28.2 -6.0 7 19.2 SE 24 35 13 19 1014.1 1009.4 0.0
09/05:30pm 36.3 29.0 -6.1 6 19.7 ESE 24 32 13 17 1013.9 1009.1 0.0
09/05:00pm 37.1 30.7 -4.9 7 20.0 ESE 20 33 11 18 1013.9 1009.1 0.0
09/04:30pm 37.3 31.0 -5.4 6 20.2 SSE 19 28 10 15 1013.8 1009.0 0.0
09/04:00pm 37.4 30.5 -6.3 6 20.4 SE 22 37 12 20 1013.8 1009.0 0.0
09/03:30pm 37.5 30.8 -4.1 7 20.1 SE 22 39 12 21 1013.9 1009.1 0.0
09/03:00pm 37.0 31.3 -3.5 7 19.7 SE 17 30 9 16 1014.0 1009.3 0.0
09/02:30pm 37.2 31.5 -3.4 7 19.8 ESE 17 32 9 17 1014.2 1009.5 0.0
09/02:11pm 38.0 31.4 -6.6 5 20.8 SE 20 46 11 25 1014.3 1009.6 0.0
09/02:00pm 37.7 31.0 -4.5 7 20.3 ESE 22 33 12 18 1014.5 1009.8 0.0
09/01:30pm 37.3 30.6 -4.2 7 20.0 SE 22 39 12 21 1014.9 1010.2 0.0
09/01:00pm 37.6 31.5 -4.3 7 20.2 SSW 19 28 10 15 1015.2 1010.5 0.0
09/12:30pm 36.3 30.5 -4.4 7 19.4 SE 17 30 9 16 1015.9 1011.2 0.0
09/12:00pm 36.6 31.4 -2.8 8 19.3 E 15 24 8 13 1016.3 1011.6 0.0
09/11:30am 36.9 29.9 -3.4 7 19.6 SE 24 35 13 19 1016.8 1012.1 0.0
09/11:00am 35.7 31.0 -2.0 9 18.6 SE 13 22 7 12 1017.3 1012.6 0.0
09/10:30am 35.2 29.3 -2.6 9 18.4 ENE 19 33 10 18 1017.7 1013.0 0.0
09/10:00am 35.3 29.4 -2.3 9 18.4 E 19 32 10 17 1018.0 1013.3 0.0
09/09:30am 34.3 27.9 -1.4 10 17.6 E 22 30 12 16 1018.3 1013.6 0.0

Other Formats:

Comma delimited format used in spreadsheet applications
http://www.bom.gov.au/fwo/IDW60801/IDW60801.94461.axf

JavaScript Object Notation format (JSON) in row-major order
http://www.bom.gov.au/fwo/IDW60801/IDW60801.94461.json